Smith Valley, Nevada Weather observations

Data are for 10 minute period ending at time listed.
 Day   Time   Solar   Ave.   Ave.  Ave.  Vector  Max.   Baro.   Total    
  of    of     Rad.   Air    Rel.  Wind   Wind   Wind  Press.  Precip.   
Year   Day            Temp.  Hum.  Speed  Dir.   Gust                    
2016   (PST)  Kw/m2    F      %     mph   deg.    mph    mb.     in.     
-------------------------------------------------------------------------
 148    8:50   0.69   64.4    40    2.2    95     5.3   853.6    0.00 
 148    9:00   0.71   64.2    39    1.9    27     6.6   853.6    0.00 
 148    9:10   0.74   65.4    40    3.2   227     7.0   853.5    0.00 
 148    9:20   0.76   65.4    37    3.1   165     8.3   853.4    0.00 
 148    9:30   0.78   66.1    36    3.3   123     7.0   853.3    0.00 
 148    9:40   0.81   66.7    34    3.2   168     8.4   853.3    0.00 
 148    9:50   0.83   67.2    32    3.2   165    15.7   853.3    0.00 
 148   10:00   0.85   67.4    32    4.9   194     9.3   853.2    0.00 
 148   10:10   0.87   67.2    32    4.4   195     9.8   853.2    0.00 
 148   10:20   0.88   67.1    32    3.9   186     8.8   853.1    0.00 
 148   10:30   0.90   67.5    32    4.5   232     9.4   853.0    0.00 
 148   10:40   0.92   68.0    31    4.1   223     8.8   853.0    0.00 
 148   10:50   0.92   68.0    32    4.9   184     9.3   852.9    0.00 
 148   11:00   0.92   68.9    31    3.4   266     6.1   852.8    0.00 
 148   11:10   0.97   69.3    31    3.5   144     8.3   852.7    0.00 
 148   11:20   0.97   69.5    30    4.3   153     8.8   852.5    0.00 
 148   11:30   0.98   69.7    29    3.6   216     7.4   852.4    0.00 
 148   11:40   0.98   70.5    29    3.2   190     9.1   852.3    0.00 
 148   11:50   0.98   71.2    29    2.5   204     6.1   852.2    0.00 
 148   12:00   0.97   72.0    27    2.5    44     6.8   852.1    0.00 
 148   12:10   0.93   71.5    28    6.7   120    11.2   851.9    0.00 
 148   12:20   0.98   71.8    27    5.3    65    12.5   851.8    0.00 
 148   12:30   0.99   72.3    26    3.4    33     8.1   851.6    0.00 
 148   12:40   0.95   72.1    26    6.5   331    11.5   851.6    0.00 
 148   12:50   0.85   72.9    26    5.5   253     9.2   851.4    0.00 
 148   13:00   0.89   74.1    24    2.8   341     6.1   851.3    0.00 
 148   13:10   0.56   73.3    25    2.5     7     9.6   851.1    0.00 
 148   13:20   1.00   73.4    25    6.1    78    12.9   851.0    0.00 
 148   13:30   0.73   73.8    24    5.8    16    13.2   850.8    0.00 
 148   13:40   0.96   74.1    24    2.9   133     7.5   850.8    0.00 
 148   13:50   0.23   73.1    24    3.0   205     9.0   850.6    0.00 
 148   14:00   0.37   71.9    26    4.3     2    14.2   850.6    0.00 
 148   14:10   0.82   74.1    25    8.6   277    26.7   850.4    0.00 
 148   14:20   0.82   75.8    24    8.4   259    25.1   850.3    0.00 
 148   14:30   0.65   75.2    22   11.0   306    18.7   850.3    0.00 
 148   14:40   0.77   74.5    23    9.2   322    17.0   850.2    0.00 
 148   14:50   0.55   75.6    22    9.8   287    17.2   850.2    0.00 
 148   15:00   0.83   75.6    22   10.7   304    19.1   850.1    0.00 
 148   15:10   0.78   75.6    23    7.0   309    14.3   850.0    0.00 
 148   15:20   0.76   75.3    21   10.2   305    19.1   850.0    0.00 
 148   15:30   0.73   75.1    21   10.7   297    20.2   850.0    0.00 
 148   15:40   0.68   75.1    21   11.7   303    18.5   850.0    0.00 
 148   15:50   0.63   74.7    20   11.4   312    19.0   849.9    0.00 
 148   16:00   0.58   74.0    22   11.0   310    18.3   850.0    0.00 
 148   16:10   0.54   74.0    22   11.6   301    18.0   850.0    0.00 
 148   16:20   0.43   73.6    22   11.1   298    19.5   850.0    0.00 
 148   16:30   0.46   72.2    24   11.4   301    17.0   850.0    0.00 
 148   16:40   0.38   71.9    24   11.5   286    17.1   849.9    0.00 
 148   16:50   0.41   72.4    23    8.3   294    14.0   849.8    0.00 
 148   17:00   0.38   72.0    24   12.5   293    19.0   849.7    0.00 
 148   17:10   0.35   71.6    24   12.3   289    20.1   849.7    0.00 
 148   17:20   0.32   71.3    23   11.9   293    19.0   849.7    0.00 
 148   17:30   0.29   70.9    24   11.6   294    20.3   849.7    0.00 
 148   17:40   0.26   70.4    25   12.2   292    19.3   849.7    0.00 
 148   17:50   0.23   69.9    25   11.9   289    18.4   849.7    0.00 
 148   18:00   0.19   69.5    26   13.2   282    23.1   849.8    0.00 
 148   18:10   0.16   69.0    26   12.8   281    19.4   849.9    0.00 
 148   18:20   0.12   68.1    28   11.8   283    18.8   849.9    0.00 
 148   18:30   0.10   67.5    29   11.7   276    18.3   850.1    0.00 
 148   18:40   0.07   66.5    31    9.0   270    18.3   850.1    0.00 
 148   18:50   0.03   65.2    32   10.1   271    16.7   850.2    0.00 
 148   19:00   0.02   64.3    33    8.6   277    16.5   850.2    0.00 
 148   19:10   0.01   64.0    33   10.1   278    18.2   850.1    0.00 
 148   19:20   0.01   63.6    35   10.4   279    16.4   850.1    0.00 
 148   19:30   0.00   62.8    37   10.0   271    17.9   850.1    0.00 
 148   19:40   0.00   62.6    37   10.2   272    20.3   850.1    0.00 
 148   19:50   0.00   62.5    37   11.9   274    18.8   850.1    0.00 
 148   20:00   0.00   62.1    38   10.3   270    16.1   850.2    0.00 
 148   20:10   0.00   61.8    39   11.2   265    18.3   850.3    0.00 
 148   20:20   0.00   61.2    41   10.0   256    14.8   850.5    0.00 
 148   20:30   0.00   61.1    41    9.6   255    15.0   850.6    0.00 
 148   20:40   0.00   61.4    40   11.1   253    15.4   850.8    0.00 
 148   20:50   0.00   61.7    39    8.2   254    14.5   850.9    0.00 
 148   21:00   0.00   60.7    40    7.2   248    10.5   851.0    0.00 
 148   21:10   0.00   60.6    40    6.0   241    11.8   851.2    0.00 
 148   21:20   0.00   60.7    40    5.1   235    11.3   851.2    0.00 
 148   21:30   0.00   60.4    42    1.7   188     6.1   851.3    0.00 
 148   21:40   0.00   59.8    43    2.9     0     5.4   851.4    0.00 
 148   21:50   0.00   58.1    48    2.8   220     6.6   851.4    0.00 
 148   22:00   0.00   56.6    54    1.6   268     2.9   851.5    0.00 
 148   22:10   0.00   56.3    53    2.0   224     3.9   851.5    0.00 
 148   22:20   0.00   56.2    52    1.6   120     4.5   851.5    0.00 
 148   22:30   0.00   56.9    51    3.1   128     5.4   851.5    0.00 
 148   22:40   0.00   57.1    50    3.1   147     5.1   851.6    0.00 
 148   22:50   0.00   56.6    52    4.0   172     6.6   851.7    0.00 
 148   23:00   0.00   57.9    49    4.6   192     8.8   851.6    0.00 
 148   23:10   0.00   57.8    48    2.7   202     5.6   851.7    0.00 
 148   23:20   0.00   57.1    50    1.8   210     4.5   851.7    0.00 
 148   23:30   0.00   56.0    54    3.7   212     5.0   851.7    0.00 
 148   23:40   0.00   54.4    58    2.5   225     3.7   851.7    0.00 
 148   23:50   0.00   53.3    63    2.4   282     3.7   851.7    0.00 
 149    0:00   0.00   52.7    62    1.7   301     2.9   851.7    0.00 
 149    0:10   0.00   52.9    61    2.6   274     3.3   851.7    0.00 
 149    0:20   0.00   50.7    66    2.6   276     4.3   851.8    0.00 
 149    0:30   0.00   50.0    64    1.7   253     4.8   851.9    0.00 
 149    0:40   0.00   49.2    67    1.5   138     2.6   852.0    0.00 
 149    0:50   0.00   48.0    73    2.4   139     7.4   852.2    0.00 
 149    1:00   0.00   47.4    74    1.0   140     2.2   852.1    0.00 
 149    1:10   0.00   47.5    75    1.6   209     3.3   852.1    0.00 
 149    1:20   0.00   46.9    80    2.7   253     4.0   852.1    0.00 
 149    1:30   0.00   46.0    82    2.4   265     4.7   852.1    0.00 
 149    1:40   0.00   45.2    79    3.5   269     5.4   852.1    0.00 
 149    1:50   0.00   46.6    72    1.2   282     3.2   852.1    0.00 
 149    2:00   0.00   46.7    71    1.7   277     3.7   852.0    0.00 
 149    2:10   0.00   46.4    71    1.2   324     2.5   852.0    0.00 
 149    2:20   0.00   46.0    69    1.6    21     3.9   852.1    0.00 
 149    2:30   0.00   46.8    68    1.7   288     4.0   852.1    0.00 
 149    2:40   0.00   45.4    71    1.3   112     4.2   852.1    0.00 
 149    2:50   0.00   44.1    77    1.6   208     2.9   852.1    0.00 
 149    3:00   0.00   44.6    75    1.4   264     2.9   852.1    0.00 
 149    3:10   0.00   43.7    75    2.9   280     4.1   852.1    0.00 
 149    3:20   0.00   43.7    72    2.6   286     3.9   852.1    0.00 
 149    3:30   0.00   45.5    67    2.9   291     3.5   852.2    0.00 
 149    3:40   0.00   46.5    63    2.8   296     3.8   852.2    0.00 
 149    3:50   0.00   46.1    64    1.3    35     2.0   852.3    0.00 
 149    4:00   0.00   44.8    69    0.4    34     1.5   852.3    0.00 
 149    4:10   0.00   44.0    71    0.9   135     2.0   852.3    0.00 
 149    4:20   0.00   42.9    78    2.7   190     3.5   852.5    0.00 
 149    4:30   0.00   41.5    85    2.5   187     3.4   852.6    0.00 
 149    4:40   0.01   41.1    86    3.0   181     3.9   852.7    0.00 
 149    4:50   0.02   42.0    83    2.9   157     4.3   852.7    0.00 
 149    5:00   0.04   43.8    78    3.6   195     4.8   852.8    0.00 
 149    5:10   0.05   44.2    78    2.6   176     4.7   852.8    0.00 
 149    5:20   0.07   44.9    76    1.8   188     2.7   852.9    0.00 
 149    5:30   0.10   46.0    76    0.4   142     1.3   853.0    0.00 
 149    5:40   0.13   47.2    75    1.3   230     1.8   853.0    0.00 
 149    5:50   0.17   48.9    74    1.2   232     2.1   853.1    0.00 
 149    6:00   0.17   51.2    66    0.4   215     1.6   853.1    0.00 
 149    6:10   0.20   52.3    65    1.9   105     3.4   853.1    0.00 
 149    6:20   0.20   53.0    62    1.4   129     3.0   853.1    0.00 
 149    6:30   0.23   53.6    60    1.9   112     2.9   853.2    0.00 
 149    6:40   0.29   55.2    55    1.7   123     2.8   853.2    0.00 
 149    6:50   0.32   56.7    46    1.2   138     2.4   853.2    0.00 
 149    7:00   0.34   58.0    42    0.5   171     2.1   853.1    0.00 
 149    7:10   0.35   58.8    42    1.7   162     4.1   853.1    0.00 
 149    7:20   0.40   58.8    30    3.7    23     6.9   853.1    0.00 
 149    7:30   0.37   59.2    29    3.4    10     5.9   853.1    0.00 
 149    7:40   0.43   59.3    28    3.3    11     6.1   853.1    0.00 
 149    7:50   0.38   60.0    26    3.2    38     7.1   853.2    0.00 
 149    8:00   0.50   60.5    26    3.2    17     7.1   853.2    0.00 
 149    8:10   0.49   61.0    28    2.9   104     6.5   853.2    0.00 
 149    8:20   0.56   62.5    26    1.7    34     5.2   853.2    0.00 
 149    8:30   0.59   62.5    26    3.1   351     6.9   853.2    0.00 
 149    8:40   0.66   62.2    26    2.5    19     5.4   853.2    0.00 

Return to Smith Valley graphs page.


Western Regional Climate Center,wrcc@dri.edu